Time;durP1;ratioP1;P1;durP2;ratioP2;P2;SDS_P1;SDS_P2;PMS_P1;PMS_P2;Temp;Humidity;BMP_temperature;BMP_pressure;BME280_temperature;BME280_humidity;BME280_pressure;Samples;Min_cycle;Max_cycle;Signal;HPM_P1;HPM_P2
2023/06/11 00:00:19;;;;;;;13.40;2.60;;;;;;;16.61;43.85;101079.14;110897;1211;138660;-63
2023/06/11 00:02:44;;;;;;;6.30;1.90;;;;;;;16.57;43.84;101079.73;110983;1210;99002;-63
2023/06/11 00:05:09;;;;;;;9.30;2.20;;;;;;;16.55;44.07;101078.42;110927;1222;138298;-62
2023/06/11 00:07:38;;;;;;;10.20;2.60;;;;;;;16.54;43.97;101080.61;110980;1219;98937;-63
2023/06/11 00:10:07;;;;;;;3.30;2.30;;;;;;;16.53;44.00;101076.03;110985;1208;98928;-63
2023/06/11 00:12:33;;;;;;;8.10;1.90;;;;;;;16.53;43.99;101081.79;110898;1209;138104;-62
2023/06/11 00:15:02;;;;;;;6.10;2.20;;;;;;;16.54;44.00;101081.38;111104;1211;98084;-62
2023/06/11 00:17:27;;;;;;;8.90;2.20;;;;;;;16.52;43.95;101083.48;110937;1211;138270;-63
2023/06/11 00:19:53;;;;;;;4.70;1.80;;;;;;;16.52;43.81;101082.79;110956;1212;99051;-63
2023/06/11 00:22:18;;;;;;;10.70;2.40;;;;;;;16.50;44.03;101083.25;111048;1208;99073;-63
2023/06/11 00:24:43;;;;;;;6.00;2.00;;;;;;;16.49;43.90;101079.37;110885;1211;138160;-62
2023/06/11 00:27:09;;;;;;;5.40;1.60;;;;;;;16.47;43.96;101075.67;111032;1211;99385;-63
2023/06/11 00:29:34;;;;;;;4.30;2.30;;;;;;;16.45;43.98;101075.78;110850;1212;138554;-63
2023/06/11 00:32:00;;;;;;;6.60;1.80;;;;;;;16.43;43.92;101080.06;110956;1208;99078;-63
2023/06/11 00:34:25;;;;;;;3.10;2.00;;;;;;;16.42;43.94;101077.09;111043;1208;98932;-62
2023/06/11 00:36:52;;;;;;;3.80;2.20;;;;;;;16.41;43.93;101075.67;110867;1208;139697;-62
2023/06/11 00:39:18;;;;;;;5.70;2.10;;;;;;;16.40;44.08;101078.98;110966;1208;100172;-62
2023/06/11 00:41:45;;;;;;;5.80;2.10;;;;;;;16.39;43.90;101078.53;110952;1211;138934;-63
2023/06/11 00:44:18;;;;;;;5.40;2.20;;;;;;;16.35;43.77;101075.88;110986;1208;98987;-62
2023/06/11 00:46:45;;;;;;;8.80;2.80;;;;;;;16.33;43.95;101075.83;111033;1224;99047;-63
2023/06/11 00:49:11;;;;;;;8.20;2.30;;;;;;;16.31;43.94;101079.36;110977;1209;138100;-63
2023/06/11 00:51:41;;;;;;;3.30;2.40;;;;;;;16.29;43.87;101078.77;110989;1211;99084;-62
2023/06/11 00:54:12;;;;;;;3.20;1.90;;;;;;;16.28;43.95;101078.29;110883;1211;140448;-63
2023/06/11 00:56:39;;;;;;;5.10;2.50;;;;;;;16.26;44.07;101086.34;111092;1212;107717;-62
2023/06/11 00:59:06;;;;;;;4.60;2.00;;;;;;;16.24;43.88;101085.52;110940;1207;138763;-62
2023/06/11 01:01:41;;;;;;;4.80;1.80;;;;;;;16.21;43.92;101081.02;111001;1212;97906;-62
2023/06/11 01:04:13;;;;;;;6.80;2.60;;;;;;;16.19;43.93;101078.28;111068;1208;112028;-63
2023/06/11 01:06:46;;;;;;;8.20;2.10;;;;;;;16.17;43.97;101083.78;110978;1208;140359;-63
2023/06/11 01:09:12;;;;;;;5.80;2.80;;;;;;;16.16;43.86;101083.83;110968;1211;107922;-63
2023/06/11 01:11:38;;;;;;;12.00;3.50;;;;;;;16.14;43.90;101078.38;110870;1207;140493;-62
2023/06/11 01:14:05;;;;;;;5.80;2.10;;;;;;;16.11;43.80;101081.98;111049;1211;98929;-63
2023/06/11 01:17:02;;;;;;;4.60;2.30;;;;;;;16.08;43.88;101078.94;111059;1210;99053;-62
2023/06/11 01:19:31;;;;;;;7.70;2.30;;;;;;;16.05;43.99;101077.84;110990;1211;108271;-63
2023/06/11 01:22:00;;;;;;;5.90;2.30;;;;;;;16.04;43.94;101079.02;110853;1212;101879;-62
2023/06/11 01:24:51;;;;;;;4.40;2.00;;;;;;;16.01;43.98;101082.05;110904;1208;138400;-62
2023/06/11 01:27:24;;;;;;;6.00;2.40;;;;;;;15.98;43.91;101086.92;110957;1208;113002;-62
2023/06/11 01:29:52;;;;;;;5.60;2.20;;;;;;;15.98;43.97;101092.33;110911;1208;138953;-62
2023/06/11 01:32:23;;;;;;;3.40;1.80;;;;;;;15.96;44.04;101094.06;110951;1208;107572;-62
2023/06/11 01:34:49;;;;;;;5.80;2.30;;;;;;;15.93;44.00;101093.52;110991;1208;99048;-63
2023/06/11 01:37:14;;;;;;;8.00;2.60;;;;;;;15.91;43.99;101098.88;111069;1208;138488;-62
2023/06/11 01:39:45;;;;;;;5.40;2.70;;;;;;;15.89;44.15;101100.23;111093;1208;98935;-62
2023/06/11 01:42:10;;;;;;;4.70;2.50;;;;;;;15.87;44.03;101099.44;110828;1207;138665;-62
2023/06/11 01:44:36;;;;;;;8.80;2.70;;;;;;;15.86;44.14;101106.70;110985;1212;98930;-64
2023/06/11 01:47:01;;;;;;;17.10;3.30;;;;;;;15.85;44.08;101109.48;110914;1211;139107;-64
2023/06/11 01:49:26;;;;;;;6.10;2.20;;;;;;;15.82;44.05;101108.41;110887;1212;99140;-64
2023/06/11 01:51:55;;;;;;;9.20;3.20;;;;;;;15.79;44.06;101112.33;110893;1208;98963;-64
2023/06/11 01:54:22;;;;;;;10.00;2.50;;;;;;;15.78;44.10;101113.34;110801;1209;138013;-63
2023/06/11 01:56:48;;;;;;;17.80;3.30;;;;;;;15.76;44.22;101116.11;111030;1224;113121;-64
2023/06/11 01:59:13;;;;;;;7.90;2.70;;;;;;;15.74;44.24;101118.05;110909;1211;139564;-64
2023/06/11 02:01:40;;;;;;;10.90;2.20;;;;;;;15.72;44.22;101118.17;111036;1211;99057;-64
2023/06/11 02:04:05;;;;;;;7.60;2.20;;;;;;;15.70;44.17;101117.91;110939;1211;99276;-64
2023/06/11 02:06:32;;;;;;;8.90;2.80;;;;;;;15.68;44.31;101125.96;110830;1212;138212;-64
2023/06/11 02:08:57;;;;;;;5.70;2.10;;;;;;;15.65;44.35;101128.86;111054;1208;98982;-63
2023/06/11 02:11:22;;;;;;;4.00;2.70;;;;;;;15.64;44.42;101129.11;110858;1211;138153;-63
2023/06/11 02:13:47;;;;;;;8.20;2.90;;;;;;;15.62;44.40;101131.88;111008;1207;98941;-63
2023/06/11 02:16:13;;;;;;;7.60;2.20;;;;;;;15.61;44.46;101131.23;111077;1211;98946;-65
2023/06/11 02:18:38;;;;;;;6.40;2.20;;;;;;;15.60;44.56;101135.63;110826;1212;138315;-63
2023/06/11 02:21:03;;;;;;;5.90;2.70;;;;;;;15.60;44.51;101138.53;110984;1207;99003;-63
2023/06/11 02:23:31;;;;;;;5.90;2.90;;;;;;;15.60;44.58;101143.20;110885;1208;138735;-64
2023/06/11 02:25:56;;;;;;;5.50;2.40;;;;;;;15.61;44.63;101147.79;110870;1223;99018;-63
2023/06/11 02:28:22;;;;;;;14.40;2.40;;;;;;;15.62;44.56;101148.13;111023;1208;99619;-63
2023/06/11 02:30:47;;;;;;;8.80;2.50;;;;;;;15.60;44.62;101151.86;110921;1211;139101;-64
2023/06/11 02:33:13;;;;;;;7.60;2.20;;;;;;;15.57;44.74;101151.11;110931;1212;99024;-63
2023/06/11 02:35:38;;;;;;;6.70;2.80;;;;;;;15.55;44.75;101145.25;110816;1208;138180;-63
2023/06/11 02:38:04;;;;;;;9.40;2.10;;;;;;;15.53;44.81;101146.80;110922;1211;99009;-64
2023/06/11 02:40:29;;;;;;;12.70;2.60;;;;;;;15.54;44.78;101148.55;110999;1208;99464;-64
2023/06/11 02:42:54;;;;;;;11.00;3.20;;;;;;;15.52;44.71;101152.98;110902;1212;138892;-64
2023/06/11 02:45:20;;;;;;;5.40;2.30;;;;;;;15.51;44.72;101155.00;110861;1208;100298;-63
2023/06/11 02:47:45;;;;;;;9.00;2.30;;;;;;;15.50;44.80;101156.00;110797;1208;138489;-64
2023/06/11 02:50:10;;;;;;;4.50;2.50;;;;;;;15.47;44.83;101159.02;110886;1208;98993;-63
2023/06/11 02:52:36;;;;;;;5.10;2.80;;;;;;;15.44;45.09;101161.36;110942;1216;99069;-64
2023/06/11 02:55:01;;;;;;;5.40;2.10;;;;;;;15.44;45.01;101158.50;110846;1208;138530;-64
2023/06/11 02:57:27;;;;;;;6.70;3.00;;;;;;;15.44;45.08;101162.09;110937;1212;99060;-64
2023/06/11 02:59:53;;;;;;;4.30;2.20;;;;;;;15.44;45.10;101162.79;110821;1212;138590;-64
2023/06/11 03:02:18;;;;;;;4.80;2.70;;;;;;;15.42;45.27;101167.95;111019;1212;101931;-64
2023/06/11 03:04:43;;;;;;;6.50;2.50;;;;;;;15.43;45.16;101167.89;110918;1212;99066;-65
2023/06/11 03:07:08;;;;;;;10.60;3.10;;;;;;;15.45;45.20;101171.41;110905;1209;139443;-64
2023/06/11 03:09:34;;;;;;;10.30;2.50;;;;;;;15.45;45.14;101174.45;110910;1212;99086;-64
2023/06/11 03:11:59;;;;;;;5.60;2.40;;;;;;;15.47;45.15;101176.51;110840;1212;138667;-63
2023/06/11 03:14:26;;;;;;;10.70;3.70;;;;;;;15.47;45.16;101178.48;110909;1208;99037;-63
2023/06/11 03:16:51;;;;;;;11.90;3.40;;;;;;;15.47;45.24;101179.19;111063;1212;99008;-64
2023/06/11 03:19:17;;;;;;;5.20;2.70;;;;;;;15.45;45.29;101179.70;110861;1212;139258;-64
2023/06/11 03:21:42;;;;;;;7.50;2.30;;;;;;;15.46;45.34;101181.98;110939;1213;99036;-64
2023/06/11 03:24:08;;;;;;;4.50;2.60;;;;;;;15.48;45.26;101186.33;110800;1208;138526;-64
2023/06/11 03:26:33;;;;;;;7.20;2.60;;;;;;;15.48;45.28;101183.13;111001;1211;99039;-64
2023/06/11 03:28:59;;;;;;;8.40;3.10;;;;;;;15.47;45.48;101184.45;110764;1225;139542;-64
2023/06/11 03:31:25;;;;;;;5.70;2.60;;;;;;;15.49;45.36;101186.46;110941;1209;99152;-64
2023/06/11 03:33:50;;;;;;;8.20;2.90;;;;;;;15.51;45.36;101191.03;111111;1208;97828;-64
2023/06/11 03:36:15;;;;;;;8.20;2.60;;;;;;;15.50;45.39;101186.98;110823;1212;139401;-64
2023/06/11 03:38:40;;;;;;;6.70;2.30;;;;;;;15.48;45.37;101187.42;110949;1224;99073;-64
2023/06/11 03:41:07;;;;;;;4.80;2.60;;;;;;;15.49;45.38;101188.64;110826;1208;139355;-64
2023/06/11 03:43:32;;;;;;;5.90;2.50;;;;;;;15.49;45.36;101185.20;110949;1212;99060;-64
2023/06/11 03:45:57;;;;;;;9.10;2.30;;;;;;;15.49;45.44;101189.56;110967;1208;99585;-63
2023/06/11 03:48:23;;;;;;;9.30;2.70;;;;;;;15.51;45.42;101191.42;110829;1208;139923;-63
2023/06/11 03:50:48;;;;;;;6.90;2.10;;;;;;;15.51;45.56;101193.37;111022;1208;98972;-64
2023/06/11 03:53:14;;;;;;;4.40;2.20;;;;;;;15.54;45.45;101194.65;110797;1208;138054;-64
2023/06/11 03:55:39;;;;;;;18.50;3.40;;;;;;;15.56;45.41;101199.61;110987;1212;98950;-63
2023/06/11 03:58:05;;;;;;;5.40;2.80;;;;;;;15.58;45.46;101200.05;111007;1212;99058;-64
2023/06/11 04:00:31;;;;;;;5.00;2.20;;;;;;;15.61;45.47;101199.85;110858;1212;138221;-64
2023/06/11 04:02:57;;;;;;;8.80;2.80;;;;;;;15.64;45.41;101200.98;110954;1212;99022;-64
2023/06/11 04:05:22;;;;;;;13.40;2.60;;;;;;;15.64;45.46;101202.40;110971;1213;138716;-64
2023/06/11 04:07:47;;;;;;;8.20;2.40;;;;;;;15.64;45.55;101200.61;110963;1213;99025;-64
2023/06/11 04:10:13;;;;;;;8.40;2.70;;;;;;;15.65;45.66;101201.48;111000;1228;99663;-63
2023/06/11 04:12:38;;;;;;;7.20;2.40;;;;;;;15.68;45.60;101203.06;110886;1212;139458;-64
2023/06/11 04:15:04;;;;;;;7.80;2.20;;;;;;;15.73;45.63;101205.89;110924;1209;99066;-64
2023/06/11 04:17:29;;;;;;;7.00;2.60;;;;;;;15.77;45.70;101210.16;111000;1210;139970;-63
2023/06/11 04:19:55;;;;;;;4.10;2.70;;;;;;;15.78;45.55;101210.59;110945;1208;100544;-64
2023/06/11 04:22:20;;;;;;;6.50;2.40;;;;;;;15.83;45.63;101209.06;110934;1213;99143;-64
2023/06/11 04:24:45;;;;;;;6.30;2.90;;;;;;;15.91;45.61;101213.50;110877;1209;139390;-63
2023/06/11 04:27:11;;;;;;;8.40;2.80;;;;;;;16.00;45.54;101215.13;110958;1208;99179;-64
2023/06/11 04:29:36;;;;;;;10.00;2.50;;;;;;;16.11;45.61;101218.45;110893;1208;138449;-63
2023/06/11 04:32:03;;;;;;;5.90;2.60;;;;;;;16.21;45.51;101219.67;110954;1208;98929;-63
2023/06/11 04:34:29;;;;;;;8.50;3.20;;;;;;;16.33;45.47;101221.88;110938;1212;99172;-63
2023/06/11 04:36:57;;;;;;;6.00;2.60;;;;;;;16.44;45.52;101221.64;110803;1212;139884;-63
2023/06/11 04:39:23;;;;;;;5.00;2.40;;;;;;;16.51;45.59;101222.48;110974;1212;99091;-64
2023/06/11 04:41:51;;;;;;;5.40;2.40;;;;;;;16.56;45.30;101223.44;110991;1212;137999;-64
2023/06/11 04:44:18;;;;;;;5.00;2.50;;;;;;;16.58;45.25;101227.10;110984;1212;99381;-64
2023/06/11 04:46:43;;;;;;;15.50;2.60;;;;;;;16.61;45.32;101224.98;110959;1210;99060;-63
2023/06/11 04:49:09;;;;;;;6.70;2.30;;;;;;;16.63;45.31;101228.44;110882;1228;138825;-64
2023/06/11 04:51:34;;;;;;;9.00;2.60;;;;;;;16.68;45.32;101227.63;110897;1213;99081;-64
2023/06/11 04:54:01;;;;;;;11.00;3.00;;;;;;;16.71;45.19;101227.95;110815;1208;140158;-64
2023/06/11 04:56:27;;;;;;;7.30;2.60;;;;;;;16.75;45.24;101227.75;110963;1208;98968;-63
2023/06/11 04:58:52;;;;;;;6.30;3.60;;;;;;;16.75;45.18;101229.16;110938;1213;98991;-63
2023/06/11 05:01:18;;;;;;;5.80;2.60;;;;;;;16.77;45.17;101227.48;110836;1209;138542;-63
2023/06/11 05:03:43;;;;;;;10.10;2.80;;;;;;;16.80;45.22;101232.45;110961;1209;99520;-63
2023/06/11 05:06:08;;;;;;;4.70;2.30;;;;;;;16.85;45.07;101230.77;110784;1209;138082;-64
2023/06/11 05:08:34;;;;;;;8.00;2.80;;;;;;;16.85;45.14;101226.58;110891;1211;98999;-63
2023/06/11 05:11:00;;;;;;;4.40;2.70;;;;;;;16.88;45.13;101228.57;110984;1210;139192;-63
2023/06/11 05:13:26;;;;;;;5.60;2.60;;;;;;;16.89;44.99;101230.86;111046;1208;99053;-64
2023/06/11 05:15:55;;;;;;;7.60;3.30;;;;;;;16.90;45.07;101227.76;111070;1213;98972;-64
2023/06/11 05:18:21;;;;;;;6.50;2.90;;;;;;;16.90;45.07;101230.13;110813;1209;138512;-64
2023/06/11 05:20:48;;;;;;;12.10;2.80;;;;;;;16.92;45.21;101230.16;110943;1213;99050;-64
2023/06/11 05:23:18;;;;;;;10.50;2.40;;;;;;;16.95;45.14;101234.46;110786;1210;139502;-64
2023/06/11 05:25:47;;;;;;;4.10;2.40;;;;;;;16.99;45.18;101233.36;110977;1208;112821;-63
2023/06/11 05:28:15;;;;;;;5.00;3.00;;;;;;;17.06;45.18;101238.35;110915;1214;100238;-64
2023/06/11 05:30:43;;;;;;;8.80;2.50;;;;;;;17.12;45.28;101236.89;110787;1226;138608;-64
2023/06/11 05:33:10;;;;;;;5.60;2.50;;;;;;;17.18;45.28;101240.61;110951;1209;99010;-64
2023/06/11 05:35:36;;;;;;;8.00;2.80;;;;;;;17.27;45.07;101235.80;110885;1212;138965;-64
2023/06/11 05:38:06;;;;;;;9.50;3.10;;;;;;;17.31;45.11;101237.48;110938;1208;98587;-64
2023/06/11 05:40:36;;;;;;;4.90;2.80;;;;;;;17.36;45.22;101238.12;110955;1213;100068;-64
2023/06/11 05:43:02;;;;;;;6.80;3.20;;;;;;;17.40;45.14;101238.18;110775;1210;141689;-64
2023/06/11 05:45:30;;;;;;;12.10;2.80;;;;;;;17.44;45.13;101240.64;111016;1212;99007;-65
2023/06/11 05:47:55;;;;;;;4.10;2.90;;;;;;;17.49;45.20;101245.23;110809;1208;138171;-64
2023/06/11 05:50:21;;;;;;;3.80;2.80;;;;;;;17.54;45.28;101245.10;111008;1212;99046;-64
2023/06/11 05:52:47;;;;;;;5.00;2.60;;;;;;;17.57;45.10;101246.91;110962;1214;108083;-64
2023/06/11 05:55:13;;;;;;;5.50;2.90;;;;;;;17.60;45.16;101250.69;110820;1208;137927;-64
2023/06/11 05:57:38;;;;;;;9.70;2.90;;;;;;;17.63;45.33;101251.02;111035;1208;98962;-62
2023/06/11 06:00:06;;;;;;;5.80;3.10;;;;;;;17.68;45.34;101256.85;110826;1228;138126;-63
2023/06/11 06:02:31;;;;;;;7.20;2.80;;;;;;;17.74;45.17;101258.29;111037;1208;107421;-63
2023/06/11 06:04:57;;;;;;;5.20;2.60;;;;;;;17.79;45.43;101264.29;110886;1214;99724;-63
2023/06/11 06:07:22;;;;;;;7.20;2.70;;;;;;;17.85;45.44;101262.81;110894;1208;137850;-63
2023/06/11 06:09:47;;;;;;;5.80;3.50;;;;;;;17.94;45.46;101267.15;110951;1220;98924;-63
2023/06/11 06:12:12;;;;;;;10.70;3.70;;;;;;;17.99;45.40;101270.28;110859;1215;138753;-64
2023/06/11 06:14:38;;;;;;;10.40;3.00;;;;;;;18.01;45.61;101270.13;110972;1208;99124;-63
2023/06/11 06:17:05;;;;;;;7.90;2.90;;;;;;;18.08;45.65;101272.04;110899;1220;138731;-64
2023/06/11 06:19:30;;;;;;;6.00;3.90;;;;;;;18.17;45.78;101269.80;111016;1212;99089;-63
2023/06/11 06:21:55;;;;;;;5.30;3.80;;;;;;;18.24;45.93;101272.95;110913;1213;99059;-63
2023/06/11 06:24:20;;;;;;;10.30;3.30;;;;;;;18.30;46.02;101276.90;110918;1209;138473;-63
2023/06/11 06:26:47;;;;;;;7.50;3.60;;;;;;;18.36;46.08;101275.23;110956;1212;99046;-63
2023/06/11 06:29:13;;;;;;;8.90;3.50;;;;;;;18.43;46.17;101273.45;110804;1208;138904;-63
2023/06/11 06:31:40;;;;;;;7.40;3.80;;;;;;;18.53;46.16;101270.16;111029;1208;99043;-63
2023/06/11 06:34:07;;;;;;;11.50;4.00;;;;;;;18.64;46.24;101273.95;111047;1208;104405;-63
2023/06/11 06:36:33;;;;;;;12.70;3.40;;;;;;;18.73;46.16;101274.05;110856;1208;138803;-63
2023/06/11 06:38:58;;;;;;;8.90;4.00;;;;;;;18.83;46.13;101275.00;111027;1208;99795;-63
2023/06/11 06:41:24;;;;;;;6.50;3.80;;;;;;;18.93;46.23;101277.61;110877;1208;139181;-63
2023/06/11 06:43:50;;;;;;;11.30;3.70;;;;;;;19.01;46.35;101280.84;110940;1212;99194;-63
2023/06/11 06:46:15;;;;;;;6.20;4.10;;;;;;;19.10;46.32;101281.84;110907;1208;98938;-63
2023/06/11 06:48:40;;;;;;;7.80;4.40;;;;;;;19.20;46.37;101281.69;110852;1220;139643;-64
2023/06/11 06:51:05;;;;;;;7.40;4.40;;;;;;;19.31;46.45;101283.45;110918;1212;98991;-63
2023/06/11 06:53:31;;;;;;;8.50;4.20;;;;;;;19.40;46.69;101284.45;110903;1208;140227;-63
2023/06/11 06:55:58;;;;;;;5.50;4.00;;;;;;;19.49;46.79;101286.20;110937;1212;99039;-63
2023/06/11 06:58:24;;;;;;;12.60;4.10;;;;;;;19.59;47.04;101288.42;110956;1208;99648;-63
2023/06/11 07:00:49;;;;;;;6.00;4.40;;;;;;;19.69;47.05;101286.56;110864;1212;139515;-63
2023/06/11 07:03:15;;;;;;;11.30;4.80;;;;;;;19.79;47.19;101287.85;110950;1211;99057;-63
2023/06/11 07:05:41;;;;;;;8.50;5.10;;;;;;;19.86;47.26;101286.66;110831;1208;139976;-63
2023/06/11 07:08:08;;;;;;;11.80;4.60;;;;;;;19.90;47.22;101288.89;111032;1208;99133;-63
2023/06/11 07:10:34;;;;;;;7.90;4.20;;;;;;;19.95;47.29;101288.18;110991;1208;104831;-63
2023/06/11 07:12:59;;;;;;;6.90;4.40;;;;;;;20.00;47.25;101286.15;110853;1208;138364;-63
2023/06/11 07:15:25;;;;;;;9.50;4.90;;;;;;;20.05;47.42;101289.21;111002;1208;99011;-63
2023/06/11 07:17:50;;;;;;;9.10;4.40;;;;;;;20.09;47.55;101287.29;110841;1212;138759;-63
2023/06/11 07:20:15;;;;;;;9.40;4.30;;;;;;;20.14;47.56;101286.98;111018;1208;98936;-63
2023/06/11 07:22:41;;;;;;;9.50;5.20;;;;;;;20.20;47.59;101281.79;110975;1214;101196;-63
2023/06/11 07:25:07;;;;;;;8.20;4.30;;;;;;;20.28;47.61;101281.04;110789;1211;139533;-63
2023/06/11 07:27:33;;;;;;;7.90;4.80;;;;;;;20.34;47.63;101277.14;110977;1212;99040;-63
2023/06/11 07:29:58;;;;;;;10.90;4.60;;;;;;;20.40;47.70;101281.60;110926;1216;138553;-64
2023/06/11 07:32:23;;;;;;;6.80;4.70;;;;;;;20.46;47.67;101282.45;110929;1214;99010;-63
2023/06/11 07:34:48;;;;;;;8.40;4.70;;;;;;;20.51;47.75;101285.55;111032;1209;98962;-63
2023/06/11 07:37:14;;;;;;;7.70;4.60;;;;;;;20.57;47.78;101286.52;110831;1212;139076;-63
2023/06/11 07:39:39;;;;;;;10.90;4.70;;;;;;;20.64;47.78;101280.73;111064;1208;98955;-63
2023/06/11 07:42:05;;;;;;;6.90;4.50;;;;;;;20.73;47.81;101285.48;110799;1214;139028;-63
2023/06/11 07:44:30;;;;;;;11.00;4.80;;;;;;;20.82;47.74;101287.52;111074;1212;99060;-63
2023/06/11 07:46:56;;;;;;;16.40;5.30;;;;;;;20.91;47.84;101289.37;110963;1210;99050;-63
2023/06/11 07:49:21;;;;;;;9.50;4.80;;;;;;;20.95;47.88;101292.52;110892;1211;139515;-64
2023/06/11 07:51:46;;;;;;;6.70;4.20;;;;;;;20.99;47.90;101288.69;110898;1212;99025;-64
2023/06/11 07:54:12;;;;;;;11.10;4.40;;;;;;;21.07;47.93;101289.72;110878;1212;139108;-63
2023/06/11 07:56:37;;;;;;;8.50;4.70;;;;;;;21.14;47.94;101288.10;110931;1208;97801;-64
2023/06/11 07:59:03;;;;;;;10.30;5.10;;;;;;;21.20;47.94;101289.14;110884;1208;138881;-64
2023/06/11 08:01:28;;;;;;;11.40;4.40;;;;;;;21.25;47.94;101281.31;110952;1214;99046;-63
2023/06/11 08:03:54;;;;;;;5.60;4.40;;;;;;;21.28;47.96;101275.22;110902;1212;99082;-63
2023/06/11 08:06:20;;;;;;;11.80;5.00;;;;;;;21.33;47.98;101271.02;110862;1208;138057;-63
2023/06/11 08:08:47;;;;;;;5.90;4.90;;;;;;;21.44;48.05;101269.48;110943;1208;99012;-64
2023/06/11 08:11:13;;;;;;;10.90;4.20;;;;;;;21.54;48.02;101266.80;110794;1208;139961;-64
2023/06/11 08:13:40;;;;;;;7.10;5.00;;;;;;;21.61;48.03;101260.43;110959;1214;99001;-64
2023/06/11 08:16:07;;;;;;;5.20;4.70;;;;;;;21.66;47.89;101257.48;110902;1211;99128;-63
2023/06/11 08:18:33;;;;;;;8.40;5.20;;;;;;;21.74;47.95;101256.89;110848;1208;138759;-63
2023/06/11 08:20:58;;;;;;;11.50;4.90;;;;;;;21.82;47.93;101253.48;110903;1213;100771;-63
2023/06/11 08:23:24;;;;;;;10.00;5.40;;;;;;;21.92;48.05;101250.30;110827;1214;140809;-64
2023/06/11 08:25:50;;;;;;;7.60;5.20;;;;;;;22.00;47.83;101250.92;111107;1212;98958;-63
2023/06/11 08:28:15;;;;;;;10.30;5.00;;;;;;;22.10;47.92;101248.80;110882;1208;99045;-64
2023/06/11 08:30:41;;;;;;;6.30;5.00;;;;;;;22.25;48.01;101246.84;110870;1211;139060;-63
2023/06/11 08:33:06;;;;;;;10.20;4.60;;;;;;;22.38;47.97;101242.48;111033;1212;99018;-63
2023/06/11 08:35:32;;;;;;;9.70;5.40;;;;;;;22.49;47.87;101242.32;110834;1212;137955;-64
2023/06/11 08:37:57;;;;;;;9.90;4.70;;;;;;;22.59;47.78;101243.26;110904;1214;99069;-63
2023/06/11 08:40:23;;;;;;;8.80;5.20;;;;;;;22.66;47.74;101236.62;111022;1208;98909;-63
2023/06/11 08:42:49;;;;;;;6.40;4.70;;;;;;;22.73;47.72;101239.15;110860;1212;138939;-63
2023/06/11 08:45:14;;;;;;;9.70;4.40;;;;;;;22.84;47.55;101240.05;110893;1208;99002;-63
2023/06/11 08:47:50;;;;;;;7.70;4.80;;;;;;;22.96;47.16;101239.39;110925;1208;138212;-63
2023/06/11 08:50:18;;;;;;;7.30;4.80;;;;;;;23.08;47.00;101240.39;110933;1223;104374;-63
2023/06/11 08:52:49;;;;;;;11.20;4.60;;;;;;;23.19;46.99;101238.55;110947;1210;99113;-63
2023/06/11 08:55:14;;;;;;;6.60;4.10;;;;;;;23.21;46.61;101236.49;110771;1208;139570;-63
2023/06/11 08:57:40;;;;;;;7.70;4.30;;;;;;;23.18;46.04;101236.96;110998;1212;99010;-63
2023/06/11 09:00:09;;;;;;;6.90;4.60;;;;;;;23.21;46.03;101229.77;110869;1208;140025;-63
2023/06/11 09:02:35;;;;;;;9.60;4.20;;;;;;;23.25;45.50;101233.23;111046;1208;99738;-64
2023/06/11 09:05:01;;;;;;;9.00;4.70;;;;;;;23.24;45.14;101237.00;110860;1212;139263;-64
2023/06/11 09:07:27;;;;;;;11.40;4.30;;;;;;;23.25;44.89;101234.91;110981;1212;100598;-61
2023/06/11 09:10:06;;;;;;;4.90;3.90;;;;;;;23.30;44.68;101235.92;111014;1217;98991;-64
2023/06/11 09:12:31;;;;;;;8.80;4.40;;;;;;;23.33;44.31;101240.02;110834;1212;138699;-64
2023/06/11 09:14:56;;;;;;;4.40;4.00;;;;;;;23.35;44.02;101239.09;110910;1211;98969;-64
2023/06/11 09:17:22;;;;;;;6.90;4.10;;;;;;;23.40;44.02;101238.62;110913;1211;138819;-63
2023/06/11 09:19:47;;;;;;;9.90;4.00;;;;;;;23.47;43.58;101236.74;110938;1212;99303;-64
2023/06/11 09:22:13;;;;;;;10.10;3.80;;;;;;;23.51;43.34;101236.55;110971;1214;99058;-63
2023/06/11 09:24:38;;;;;;;7.70;4.50;;;;;;;23.52;42.96;101232.10;110857;1208;140040;-63
2023/06/11 09:27:06;;;;;;;11.80;3.90;;;;;;;23.62;43.15;101231.06;110928;1214;99017;-63
2023/06/11 09:29:31;;;;;;;9.40;3.80;;;;;;;23.77;42.93;101223.30;110831;1214;138509;-64
2023/06/11 09:32:09;;;;;;;6.00;3.70;;;;;;;23.90;42.67;101223.39;110976;1220;99192;-63
2023/06/11 09:34:34;;;;;;;6.40;4.30;;;;;;;24.05;42.46;101222.05;110926;1214;98943;-63
2023/06/11 09:37:00;;;;;;;5.60;4.10;;;;;;;24.13;42.42;101220.00;110830;1211;138646;-64
2023/06/11 09:39:25;;;;;;;4.60;3.90;;;;;;;24.19;42.38;101224.45;111025;1212;99085;-63
2023/06/11 09:41:51;;;;;;;6.70;4.10;;;;;;;24.20;42.07;101228.70;110897;1220;138687;-64
2023/06/11 09:44:18;;;;;;;11.20;3.70;;;;;;;24.18;41.78;101228.12;111078;1214;98952;-63
2023/06/11 09:46:48;;;;;;;8.30;3.60;;;;;;;24.16;41.50;101227.63;110972;1211;98967;-61
2023/06/11 09:49:15;;;;;;;4.30;3.20;;;;;;;24.07;41.55;101225.90;110819;1212;138002;-63
2023/06/11 09:51:41;;;;;;;7.40;3.70;;;;;;;23.93;41.32;101226.59;110961;1208;99066;-64
2023/06/11 09:54:09;;;;;;;9.10;4.10;;;;;;;23.78;40.97;101229.84;110802;1221;138896;-63
2023/06/11 09:56:37;;;;;;;8.90;4.20;;;;;;;23.51;40.98;101228.89;111051;1213;99039;-63
2023/06/11 09:59:03;;;;;;;6.00;4.30;;;;;;;23.42;41.08;101226.40;110813;1221;139154;-63
2023/06/11 10:01:29;;;;;;;9.50;4.30;;;;;;;23.52;41.36;101227.22;110892;1212;99026;-64
2023/06/11 10:03:58;;;;;;;6.80;4.70;;;;;;;23.75;41.26;101220.77;110967;1212;100294;-63
2023/06/11 10:06:30;;;;;;;4.10;3.70;;;;;;;24.00;41.17;101216.88;110860;1214;140598;-63
2023/06/11 10:08:59;;;;;;;16.00;4.10;;;;;;;24.19;40.81;101219.16;110944;1212;99126;-63
2023/06/11 10:11:26;;;;;;;6.80;3.50;;;;;;;24.21;40.48;101227.66;110879;1212;140160;-63
2023/06/11 10:13:59;;;;;;;8.90;4.00;;;;;;;24.24;40.39;101226.87;111045;1220;97773;-63
2023/06/11 10:16:25;;;;;;;7.10;4.00;;;;;;;24.29;39.95;101226.13;110992;1212;99362;-63
2023/06/11 10:18:52;;;;;;;8.20;3.80;;;;;;;24.37;39.67;101224.50;110770;1214;139835;-63
2023/06/11 10:21:18;;;;;;;8.80;3.40;;;;;;;24.49;39.40;101221.70;110896;1212;98936;-63
2023/06/11 10:23:50;;;;;;;7.50;4.10;;;;;;;24.59;39.09;101228.64;110868;1212;138681;-63
2023/06/11 10:26:15;;;;;;;7.50;3.80;;;;;;;24.53;38.33;101226.29;110873;1211;99044;-63
2023/06/11 10:28:51;;;;;;;7.40;3.90;;;;;;;24.27;37.80;101226.83;110898;1208;98974;-63
2023/06/11 10:31:26;;;;;;;7.90;3.80;;;;;;;24.14;37.88;101226.35;110793;1212;140156;-63
2023/06/11 10:33:51;;;;;;;12.30;4.20;;;;;;;24.25;38.06;101228.08;111161;1213;104356;-63
2023/06/11 10:36:23;;;;;;;8.00;3.50;;;;;;;24.46;38.13;101225.98;110804;1209;140091;-63
2023/06/11 10:38:48;;;;;;;5.50;3.50;;;;;;;24.66;37.80;101225.76;110879;1215;99331;-63
2023/06/11 10:41:13;;;;;;;7.10;4.00;;;;;;;24.67;37.55;101226.96;110761;1212;139774;-63
2023/06/11 10:43:40;;;;;;;8.90;3.40;;;;;;;24.69;37.56;101229.13;110992;1212;98977;-63
2023/06/11 10:46:10;;;;;;;9.00;3.80;;;;;;;24.83;37.46;101226.37;110908;1210;99003;-63
2023/06/11 10:48:36;;;;;;;8.30;3.60;;;;;;;24.96;37.13;101225.54;110827;1212;141924;-63
2023/06/11 10:51:08;;;;;;;6.50;3.60;;;;;;;24.85;36.34;101219.90;110879;1210;99042;-63
2023/06/11 10:53:40;;;;;;;6.50;3.70;;;;;;;24.76;36.33;101217.67;110851;1209;138756;-63
2023/06/11 10:56:13;;;;;;;4.20;3.20;;;;;;;24.96;36.36;101215.79;110949;1212;104306;-63
2023/06/11 10:58:39;;;;;;;6.50;3.30;;;;;;;25.21;36.13;101214.70;110933;1213;99043;-63
2023/06/11 11:01:07;;;;;;;9.00;3.50;;;;;;;25.37;35.88;101214.85;110771;1212;138991;-63
2023/06/11 11:03:33;;;;;;;4.60;3.30;;;;;;;25.43;35.46;101214.02;110963;1212;99133;-63
2023/06/11 11:05:59;;;;;;;5.20;2.70;;;;;;;25.47;34.98;101209.06;110796;1212;138554;-62
2023/06/11 11:08:24;;;;;;;4.90;3.10;;;;;;;25.42;34.36;101206.80;111037;1208;99062;-63